Kruzenshtern — UCVK — position and weather

sailwx.info

Track history (hours):
 
Tides and Currents Weather Stations Pressure Air Temp Water Temp Dewpoint Dewpoint Depression Visibility Wind Speed Wind Dir Waves Ship Positions

Kruzenshtern (Russia)

ex-Padua.

Last reported at 2017-May-29 10:40 UTC. Time now 2017-May-29 11:28 UTC.
Position N 53°08' E 004°30'.

Length 114 m; draft 6 m.

Type: Sailing vessel. MMSI: 273243700.

Date/timePositionNaut miles runAvg speedWind from/ knotsBaromVisibWave heightAir tempDewpointWater temp
2017-May-29 10:40N 53°08' E 004°30'1 8.6
2017-May-29 10:30N 53°07' E 004°29'5 9.0
2017-May-29 10:00N 53°03' E 004°26'5 9.6
2017-May-29 09:31N 52°59' E 004°22'510.2
2017-May-29 09:00N 52°54' E 004°18'610.9
2017-May-29 08:25N 52°49' E 004°13'510.9
2017-May-29 08:00N 52°45' E 004°08'510.7
2017-May-29 07:31N 52°41' E 004°02'510.2
2017-May-29 07:00N 52°37' E 003°56'610.3
2017-May-29 06:27N 52°33' E 003°50'4610.6
2017-May-29 02:06N 52°00' E 002°58'1 9.4
2017-May-29 02:00N 51°59' E 002°57'5 9.2
2017-May-29 01:30N 51°56' E 002°52'4 8.7
2017-May-29 01:00N 51°53' E 002°48'4 8.1
2017-May-29 00:30N 51°50' E 002°43'4 7.7
2017-May-29 00:00N 51°46' E 002°39'4 7.5
2017-May-28 23:30N 51°44' E 002°36'4 7.3
2017-May-28 23:00N 51°41' E 002°32'4 7.2
2017-May-28 22:30N 51°38' E 002°29'4 7.1
2017-May-28 22:00N 51°35' E 002°25'4 7.0
2017-May-28 21:30N 51°32' E 002°22'4 7.7
2017-May-28 21:00N 51°29' E 002°18'4 7.8
2017-May-28 20:31N 51°26' E 002°15'4 7.0
2017-May-28 20:00N 51°22' E 002°14'5 9.8
2017-May-28 19:30N 51°22' E 002°21'510.7
2017-May-28 19:00N 51°23' E 002°30'510.4
2017-May-28 18:30N 51°23' E 002°38'510.2
2017-May-28 18:01N 51°22' E 002°46'510.4
2017-May-28 17:30N 51°18' E 002°52'5 9.6
2017-May-28 17:00N 51°14' E 002°56'0 0.5
2017-May-28 16:30N 51°14' E 002°56'0 0.0
2017-May-28 16:00N 51°14' E 002°56'0 0.0
2017-May-28 15:30N 51°14' E 002°56'0 0.0
2017-May-28 15:00N 51°14' E 002°56'0 0.0
2017-May-28 14:00N 51°14' E 002°56'0 0.0
2017-May-28 13:30N 51°14' E 002°56'0 0.0
2017-May-28 13:00N 51°14' E 002°56'0 0.0
2017-May-28 12:30N 51°14' E 002°56'0 0.0
2017-May-28 12:00N 51°14' E 002°56'0 0.0
2017-May-28 11:30N 51°14' E 002°56'0 0.0
2017-May-28 11:00N 51°14' E 002°56'0 0.0
2017-May-28 10:30N 51°14' E 002°56'0 0.0
2017-May-28 10:00N 51°14' E 002°56'0 0.0
2017-May-28 09:30N 51°14' E 002°56'0 0.0
2017-May-28 09:00N 51°14' E 002°56'0 0.0
2017-May-28 08:30N 51°14' E 002°56'0 0.0
2017-May-28 08:00N 51°14' E 002°56'0 0.0
2017-May-28 07:30N 51°14' E 002°56'0 0.0
2017-May-28 07:00N 51°14' E 002°56'0 0.0
2017-May-28 06:30N 51°14' E 002°56'0 0.0
2017-May-28 06:00N 51°14' E 002°56'0 0.0
2017-May-28 05:30N 51°14' E 002°56'0 0.0
2017-May-28 04:58N 51°14' E 002°56'0 0.0
2017-May-28 04:30N 51°14' E 002°56'0 0.0
2017-May-28 03:54N 51°14' E 002°56'0 0.0
2017-May-28 03:30N 51°14' E 002°56'0 0.0
2017-May-28 03:00N 51°14' E 002°56'0 0.0
2017-May-28 02:30N 51°14' E 002°56'0 0.0
2017-May-28 02:00N 51°14' E 002°56'0 0.0
2017-May-28 01:28N 51°14' E 002°56'0 0.0
2017-May-28 01:00N 51°14' E 002°56'0 0.0
2017-May-28 00:30N 51°14' E 002°56'0 0.0
2017-May-28 00:00N 51°14' E 002°56'0 0.0
2017-May-27 23:30N 51°14' E 002°56'0 0.0
2017-May-27 23:00N 51°14' E 002°56'0 0.0
2017-May-27 22:30N 51°14' E 002°56'0 0.0
2017-May-27 22:00N 51°14' E 002°56'0 0.0
2017-May-27 21:30N 51°14' E 002°56'0 0.0
2017-May-27 21:00N 51°14' E 002°56'0 0.0
2017-May-27 20:30N 51°14' E 002°56'0 0.0
2017-May-27 20:00N 51°14' E 002°56'0 0.0
2017-May-27 19:30N 51°14' E 002°56'0 0.0
2017-May-27 19:00N 51°14' E 002°56'0 0.0
2017-May-27 18:30N 51°14' E 002°56'0 0.0
2017-May-27 18:00N 51°14' E 002°56'0 0.0
2017-May-27 17:30N 51°14' E 002°56'0 0.0
2017-May-27 17:00N 51°14' E 002°56'0 0.0
2017-May-27 16:30N 51°14' E 002°56'0 0.0
2017-May-27 15:55N 51°14' E 002°56'0 0.0
2017-May-27 15:30N 51°14' E 002°56'0 0.0
2017-May-27 15:00N 51°14' E 002°56'0 0.0
2017-May-27 14:00N 51°14' E 002°56'0 0.0
2017-May-27 13:30N 51°14' E 002°56'0 0.0
2017-May-27 13:00N 51°14' E 002°56'0 0.0
2017-May-27 12:30N 51°14' E 002°56'0 0.0
2017-May-27 12:00N 51°14' E 002°56'0 0.0
2017-May-27 11:30N 51°14' E 002°56'0 0.0
2017-May-27 11:00N 51°14' E 002°56'0 0.0
2017-May-27 10:30N 51°14' E 002°56'0 0.0
2017-May-27 10:00N 51°14' E 002°56'0 0.0
2017-May-27 09:30N 51°14' E 002°56'0 0.0
2017-May-27 09:00N 51°14' E 002°56'0 0.0
2017-May-27 08:28N 51°14' E 002°56'0 0.0
2017-May-27 07:59N 51°14' E 002°56'0 0.0
2017-May-27 07:28N 51°14' E 002°56'0 0.0
2017-May-27 07:00N 51°14' E 002°56'0 0.0
2017-May-27 06:30N 51°14' E 002°56'0 0.0
2017-May-27 06:00N 51°14' E 002°56'0 0.0
2017-May-27 05:27N 51°14' E 002°56'0 0.0
2017-May-27 05:00N 51°14' E 002°56'0 0.0
2017-May-27 04:30N 51°14' E 002°56'0 0.0
2017-May-27 04:00N 51°14' E 002°56'0 0.0
2017-May-27 03:30N 51°14' E 002°56'0 0.0
2017-May-27 02:57N 51°14' E 002°56'0 0.0
2017-May-27 02:30N 51°14' E 002°56'0 0.0
2017-May-27 01:57N 51°14' E 002°56'0 0.0
2017-May-27 01:30N 51°14' E 002°56'0 0.0
2017-May-27 01:00N 51°14' E 002°56'0 0.0
2017-May-27 00:30N 51°14' E 002°56'0 0.0
2017-May-27 00:00N 51°14' E 002°56'0 0.0
2017-May-26 23:30N 51°14' E 002°56'0 0.0
2017-May-26 23:00N 51°14' E 002°56'0 0.0
2017-May-26 22:30N 51°14' E 002°56'0 0.0
2017-May-26 22:00N 51°14' E 002°56'0 0.0
2017-May-26 21:24N 51°14' E 002°56'0 0.0
2017-May-26 21:00N 51°14' E 002°56'0 0.0
2017-May-26 20:30N 51°14' E 002°56'0 0.0
2017-May-26 20:00N 51°14' E 002°56'0 0.0
2017-May-26 19:30N 51°14' E 002°56'0 0.0
2017-May-26 19:00N 51°14' E 002°56'0 0.0
2017-May-26 18:30N 51°14' E 002°56'0 0.0
2017-May-26 17:58N 51°14' E 002°56'0 0.0
2017-May-26 17:30N 51°14' E 002°56'0 0.0
2017-May-26 17:00N 51°14' E 002°56'0 0.0
2017-May-26 16:30N 51°14' E 002°56'0 0.0
2017-May-26 16:00N 51°14' E 002°56'0 0.0
2017-May-26 15:30N 51°14' E 002°56'0 0.0
2017-May-26 15:00N 51°14' E 002°56'0 0.0
2017-May-26 14:00N 51°14' E 002°56'0 0.0
2017-May-26 13:30N 51°14' E 002°56'0 0.0
2017-May-26 13:00N 51°14' E 002°56'0 0.0
2017-May-26 12:30N 51°14' E 002°56'0 0.0
2017-May-26 12:00N 51°14' E 002°56'0 0.0
2017-May-26 11:30N 51°14' E 002°56'0 0.0
2017-May-26 11:00N 51°14' E 002°56'0 0.0
2017-May-26 10:30N 51°14' E 002°56'0 0.0
2017-May-26 10:00N 51°14' E 002°56'0 0.0
2017-May-26 09:30N 51°14' E 002°56'0 0.0
2017-May-26 09:00N 51°14' E 002°56'0 0.0
2017-May-26 08:27N 51°14' E 002°56'0 0.0
2017-May-26 08:00N 51°14' E 002°56'0 0.0
2017-May-26 07:30N 51°14' E 002°56'0 0.0
2017-May-26 07:00N 51°14' E 002°56'0 0.0
2017-May-26 06:30N 51°14' E 002°56'0 0.0
2017-May-26 06:00N 51°14' E 002°56'0 0.0
2017-May-26 05:30N 51°14' E 002°56'0 0.0
2017-May-26 05:00N 51°14' E 002°56'0 0.0
2017-May-26 04:30N 51°14' E 002°56'0 0.0
2017-May-26 04:00N 51°14' E 002°56'0 0.0
2017-May-26 03:30N 51°14' E 002°56'0 0.0
2017-May-26 03:00N 51°14' E 002°56'0 0.0
2017-May-26 02:30N 51°14' E 002°56'0 0.0
2017-May-26 02:00N 51°14' E 002°56'0 0.0
2017-May-26 01:30N 51°14' E 002°56'0 0.0
2017-May-26 01:00N 51°14' E 002°56'0 0.0
2017-May-26 00:30N 51°14' E 002°56'0 0.0
2017-May-26 00:00N 51°14' E 002°56'0 0.0
2017-May-25 23:30N 51°14' E 002°56'0 0.0
2017-May-25 23:00N 51°14' E 002°56'0 0.0
2017-May-25 22:30N 51°14' E 002°56'0 0.0
2017-May-25 22:00N 51°14' E 002°56'0 0.0
2017-May-25 21:30N 51°14' E 002°56'0 0.0
2017-May-25 20:57N 51°14' E 002°56'0 0.0
2017-May-25 20:30N 51°14' E 002°56'0 0.0
2017-May-25 20:00N 51°14' E 002°56'0 0.0
2017-May-25 19:28N 51°14' E 002°56'0 0.0
2017-May-25 19:00N 51°14' E 002°56'0 0.0
2017-May-25 18:30N 51°14' E 002°56'0 0.0
2017-May-25 18:00N 51°14' E 002°56'0 0.0
2017-May-25 17:24N 51°14' E 002°56'0 0.0
2017-May-25 17:00N 51°14' E 002°56'0 0.0
2017-May-25 16:30N 51°14' E 002°56'0 0.0
2017-May-25 16:00N 51°14' E 002°56'0 0.0
2017-May-25 15:30N 51°14' E 002°56'0 0.0
2017-May-25 14:57N 51°14' E 002°56'0 0.0
2017-May-25 14:00N 51°14' E 002°56'0 0.0
2017-May-25 13:30N 51°14' E 002°56'0 0.4
2017-May-25 13:00N 51°14' E 002°56'3 5.5
2017-May-25 12:30N 51°16' E 002°53'3 6.0
2017-May-25 12:00N 51°19' E 002°51'2 3.1
2017-May-25 11:30N 51°20' E 002°52'2 3.9
2017-May-25 11:00N 51°21' E 002°55'2 4.1
2017-May-25 10:31N 51°23' E 002°56'2 4.0
2017-May-25 10:00N 51°24' E 002°59'3 5.5
2017-May-25 09:30N 51°25' E 003°03'3 5.9
2017-May-25 09:00N 51°24' E 003°08'4 8.4
2017-May-25 08:30N 51°25' E 003°14'510.1
2017-May-25 08:01N 51°25' E 003°22'510.5
2017-May-25 07:30N 51°25' E 003°31'510.0
2017-May-25 07:00N 51°26' E 003°39'610.8
2017-May-25 06:29N 51°22' E 003°45'611.9
2017-May-25 06:00N 51°22' E 003°54'611.6
2017-May-25 05:28N 51°26' E 004°01'511.3
2017-May-25 05:00N 51°22' E 004°06'5 8.8
2017-May-25 04:28N 51°22' E 004°13'510.2
2017-May-25 04:00N 51°18' E 004°17'4 8.5
2017-May-25 03:29N 51°14' E 004°21'2 3.7
2017-May-25 02:58N 51°13' E 004°24'0 0.0
2017-May-25 02:28N 51°13' E 004°24'0 0.0
2017-May-25 01:55N 51°13' E 004°24'0 0.0
2017-May-25 01:25N 51°13' E 004°24'0 0.0
2017-May-25 00:55N 51°13' E 004°24'0 0.0
2017-May-25 00:19N 51°13' E 004°24'0 0.0
2017-May-24 23:52N 51°13' E 004°24'0 0.0
2017-May-24 23:28N 51°13' E 004°24'0 0.0
2017-May-24 22:55N 51°13' E 004°24'0 0.0
2017-May-24 22:28N 51°13' E 004°24'0 0.0
2017-May-24 21:58N 51°13' E 004°24'0 0.0
2017-May-24 21:28N 51°13' E 004°24'0 0.0
2017-May-24 20:55N 51°13' E 004°24'0 0.0
2017-May-24 20:28N 51°13' E 004°24'0 0.0
2017-May-24 19:58N 51°13' E 004°24'0 0.0
2017-May-24 19:28N 51°13' E 004°24'0 0.0
2017-May-24 18:58N 51°13' E 004°24'0 0.0
2017-May-24 18:28N 51°13' E 004°24'0 0.0
2017-May-24 17:58N 51°13' E 004°24'0 0.0
2017-May-24 17:22N 51°13' E 004°24'0 0.0
2017-May-24 16:55N 51°13' E 004°24'0 0.0
2017-May-24 16:28N 51°13' E 004°24'0 0.0
2017-May-24 15:55N 51°13' E 004°24'0 0.0
2017-May-24 15:25N 51°13' E 004°24'0 0.0
2017-May-24 14:55N 51°13' E 004°24'0 0.0
2017-May-24 14:28N 51°13' E 004°24'0 0.0
2017-May-24 13:25N 51°13' E 004°24'0 0.0
2017-May-24 12:55N 51°13' E 004°24'0 0.0
2017-May-24 12:22N 51°13' E 004°24'0 0.0
2017-May-24 11:49N 51°13' E 004°24'0 0.0
2017-May-24 11:22N 51°13' E 004°24'0 0.0
2017-May-24 10:07N 51°13' E 004°24'0 0.0
2017-May-24 09:49N 51°13' E 004°24'0 0.0
2017-May-24 09:22N 51°13' E 004°24'0 0.0
2017-May-24 08:31N 51°13' E 004°24'0 0.1
2017-May-24 08:25N 51°13' E 004°24'0 0.0
2017-May-24 07:58N 51°13' E 004°24'0 0.0
2017-May-24 07:28N 51°13' E 004°24'0 0.0
2017-May-24 06:46N 51°13' E 004°24'0 0.0
2017-May-24 06:28N 51°13' E 004°24'0 0.0
2017-May-24 05:49N 51°13' E 004°24'0 0.0
2017-May-24 05:25N 51°13' E 004°24'0 0.0
2017-May-24 04:55N 51°13' E 004°24'0 0.0
2017-May-24 04:25N 51°13' E 004°24'0 0.0
2017-May-24 03:58N 51°13' E 004°24'0 0.0
2017-May-24 03:28N 51°13' E 004°24'0 0.0
2017-May-24 02:58N 51°13' E 004°24'0 0.0
2017-May-24 02:28N 51°13' E 004°24'0 0.0
2017-May-24 01:58N 51°13' E 004°24'0 0.0
2017-May-24 01:28N 51°13' E 004°24'0 0.0
2017-May-24 00:58N 51°13' E 004°24'0 0.0
2017-May-24 00:28N 51°13' E 004°24'0 0.0
2017-May-23 23:58N 51°13' E 004°24'0 0.0
2017-May-23 23:28N 51°13' E 004°24'0 0.0
2017-May-23 22:58N 51°13' E 004°24'0 0.0
2017-May-23 22:25N 51°13' E 004°24'0 0.0
2017-May-23 21:55N 51°13' E 004°24'0 0.0
2017-May-23 21:25N 51°13' E 004°24'0 0.0
2017-May-23 20:55N 51°13' E 004°24'0 0.0
2017-May-23 20:25N 51°13' E 004°24'0 0.0
2017-May-23 19:49N 51°13' E 004°24'0 0.0
2017-May-23 19:19N 51°13' E 004°24'0 0.0
2017-May-23 18:55N 51°13' E 004°24'0 0.0
2017-May-23 18:22N 51°13' E 004°24'0 0.0
2017-May-23 17:55N 51°13' E 004°24'0 0.0
2017-May-23 17:25N 51°13' E 004°24'0 0.0
2017-May-23 16:58N 51°13' E 004°24'0 0.0
2017-May-23 16:25N 51°13' E 004°24'0 0.0
2017-May-23 15:55N 51°13' E 004°24'0 0.0
2017-May-23 15:25N 51°13' E 004°24'0 0.0
2017-May-23 14:58N 51°13' E 004°24'0 0.0
2017-May-23 14:28N 51°13' E 004°24'0 0.0
2017-May-23 13:25N 51°13' E 004°24'0 0.0
2017-May-23 12:58N 51°13' E 004°24'0 0.0
2017-May-23 12:28N 51°13' E 004°24'0 0.0
2017-May-23 11:58N 51°13' E 004°24'0 0.0
2017-May-23 11:28N 51°13' E 004°24'0 0.0
2017-May-23 10:58N 51°13' E 004°24'0 0.0
2017-May-23 10:28N 51°13' E 004°24'0 0.0
2017-May-23 09:58N 51°13' E 004°24'0 0.0
2017-May-23 09:19N 51°13' E 004°24'0 0.0
2017-May-23 08:55N 51°13' E 004°24'0 0.0
2017-May-23 08:22N 51°13' E 004°24'0 0.0
2017-May-23 07:49N 51°13' E 004°24'0 0.0
2017-May-23 07:28N 51°13' E 004°24'0 0.0
2017-May-23 06:52N 51°13' E 004°24'0 0.0
2017-May-23 06:25N 51°13' E 004°24'0 0.0
2017-May-23 05:46N 51°13' E 004°24'0 0.0
2017-May-23 05:28N 51°13' E 004°24'0 0.0
2017-May-23 04:49N 51°13' E 004°24'0 0.0
2017-May-23 04:25N 51°13' E 004°24'0 0.0
2017-May-23 03:49N 51°13' E 004°24'0 0.0
2017-May-23 03:19N 51°13' E 004°24'0 0.0
2017-May-23 02:55N 51°13' E 004°24'0 0.0
2017-May-23 02:28N 51°13' E 004°24'0 0.0
2017-May-23 01:58N 51°13' E 004°24'0 0.0
2017-May-23 01:28N 51°13' E 004°24'0 0.0
2017-May-23 00:58N 51°13' E 004°24'0 0.0
2017-May-23 00:28N 51°13' E 004°24'0 0.0
2017-May-22 23:58N 51°13' E 004°24'0 0.0
2017-May-22 23:31N 51°13' E 004°24'1 1.7
2017-May-22 23:00N 51°14' E 004°24'4 8.3
2017-May-22 22:30N 51°16' E 004°18'5 9.0
2017-May-22 22:00N 51°20' E 004°16'5 9.2
2017-May-22 21:30N 51°24' E 004°11'510.0
2017-May-22 20:59N 51°23' E 004°02'4 7.5
2017-May-22 20:31N 51°25' E 003°58'611.5
2017-May-22 20:00N 51°21' E 003°52'510.9
2017-May-22 19:31N 51°22' E 003°44'610.9
2017-May-22 19:00N 51°25' E 003°36'5 9.5
2017-May-22 18:25N 51°25' E 003°28'4 9.8
2017-May-22 18:00N 51°24' E 003°21'4 9.2
2017-May-22 17:30N 51°24' E 003°14'4 8.5
2017-May-22 17:00N 51°24' E 003°07'4 7.9
2017-May-22 16:29N 51°24' E 003°00'5 8.0
2017-May-22 15:55N 51°22' E 002°54'4 8.3
2017-May-22 15:29N 51°22' E 002°48'4 8.4
2017-May-22 14:58N 51°22' E 002°41'6 6.3
2017-May-22 14:00N 51°22' E 002°31'3 5.4
2017-May-22 13:30N 51°21' E 002°27'2 4.9
2017-May-22 13:00N 51°20' E 002°23'2 3.9
2017-May-22 12:31N 51°20' E 002°20'2 5.0
2017-May-22 12:00N 51°19' E 002°17'4 7.0
2017-May-22 11:30N 51°19' E 002°11'3 6.5
2017-May-22 11:01N 51°21' E 002°06'3 6.4
2017-May-22 10:30N 51°23' E 002°02'3 5.5
2017-May-22 10:00N 51°25' E 001°60'3 5.6
2017-May-22 09:31N 51°27' E 002°02'3 5.9
2017-May-22 09:00N 51°30' E 002°04'3 6.5
2017-May-22 08:30N 51°32' E 002°08'3 6.5
2017-May-22 08:01N 51°35' E 002°11'4 6.9
2017-May-22 07:29N 51°37' E 002°15'5 6.1
2017-May-22 06:43N 51°41' E 002°20'10 7.8
2017-May-22 05:25N 51°48' E 002°31'22 8.1
2017-May-22 02:45N 52°06' E 002°52'2 7.1
2017-May-22 02:24N 52°08' E 002°54'3 6.9
2017-May-22 02:01N 52°10' E 002°56'3 6.7
2017-May-22 01:30N 52°13' E 002°59'26 6.1
2017-May-21 21:13N 52°34' E 003°24'1 6.8
2017-May-21 21:01N 52°35' E 003°26'15 7.7
2017-May-21 19:06N 52°47' E 003°40'6 8.1
2017-May-21 18:18N 52°52' E 003°46'1 1.5
2017-May-21 17:52N 52°53' E 003°46'0 0.9
2017-May-21 17:28N 52°53' E 003°46'1 0.9
2017-May-21 16:52N 52°54' E 003°47'0 0.8
2017-May-21 16:22N 52°54' E 003°47'0 0.2
2017-May-21 15:49N 52°54' E 003°47'1 2.9
2017-May-21 15:31N 52°55' E 003°47'4 6.5
2017-May-21 14:57N 52°59' E 003°49'3 6.7
2017-May-21 14:30N 53°01' E 003°50'86 3.2
2017-May-20 11:44N 54°18' E 004°57'1 2.5
2017-May-20 11:29N 54°17' E 004°58'2 3.3
2017-May-20 10:58N 54°16' E 004°59'3 6.1
2017-May-20 10:28N 54°16' E 005°05'3 5.9
2017-May-20 09:59N 54°16' E 005°09'  
Track history (hours):
 
Tides and Currents Weather Stations Pressure Air Temp Water Temp Dewpoint Dewpoint Depression Visibility Wind Speed Wind Dir Waves Ship Positions

Kruzenshtern (Russia)

ex-Padua.

Last reported at 2017-May-29 10:40 UTC. Time now 2017-May-29 11:28 UTC.
Position N 53°08' E 004°30'.

Length 114 m; draft 6 m.

Type: Sailing vessel. MMSI: 273243700.

Date/timePositionNaut miles runAvg speedWind from/ knotsBaromVisibWave heightAir tempDewpointWater temp
2017-May-29 10:40N 53°08' E 004°30'1 8.6
2017-May-29 10:30N 53°07' E 004°29'5 9.0
2017-May-29 10:00N 53°03' E 004°26'5 9.6
2017-May-29 09:31N 52°59' E 004°22'510.2
2017-May-29 09:00N 52°54' E 004°18'610.9
2017-May-29 08:25N 52°49' E 004°13'510.9
2017-May-29 08:00N 52°45' E 004°08'510.7
2017-May-29 07:31N 52°41' E 004°02'510.2
2017-May-29 07:00N 52°37' E 003°56'610.3
2017-May-29 06:27N 52°33' E 003°50'4610.6
2017-May-29 02:06N 52°00' E 002°58'1 9.4
2017-May-29 02:00N 51°59' E 002°57'5 9.2
2017-May-29 01:30N 51°56' E 002°52'4 8.7
2017-May-29 01:00N 51°53' E 002°48'4 8.1
2017-May-29 00:30N 51°50' E 002°43'4 7.7
2017-May-29 00:00N 51°46' E 002°39'4 7.5
2017-May-28 23:30N 51°44' E 002°36'4 7.3
2017-May-28 23:00N 51°41' E 002°32'4 7.2
2017-May-28 22:30N 51°38' E 002°29'4 7.1
2017-May-28 22:00N 51°35' E 002°25'4 7.0
2017-May-28 21:30N 51°32' E 002°22'4 7.7
2017-May-28 21:00N 51°29' E 002°18'4 7.8
2017-May-28 20:31N 51°26' E 002°15'4 7.0
2017-May-28 20:00N 51°22' E 002°14'5 9.8
2017-May-28 19:30N 51°22' E 002°21'510.7
2017-May-28 19:00N 51°23' E 002°30'510.4
2017-May-28 18:30N 51°23' E 002°38'510.2
2017-May-28 18:01N 51°22' E 002°46'510.4
2017-May-28 17:30N 51°18' E 002°52'5 9.6
2017-May-28 17:00N 51°14' E 002°56'0 0.5
2017-May-28 16:30N 51°14' E 002°56'0 0.0
2017-May-28 16:00N 51°14' E 002°56'0 0.0
2017-May-28 15:30N 51°14' E 002°56'0 0.0
2017-May-28 15:00N 51°14' E 002°56'0 0.0
2017-May-28 14:00N 51°14' E 002°56'0 0.0
2017-May-28 13:30N 51°14' E 002°56'0 0.0
2017-May-28 13:00N 51°14' E 002°56'0 0.0
2017-May-28 12:30N 51°14' E 002°56'0 0.0
2017-May-28 12:00N 51°14' E 002°56'0 0.0
2017-May-28 11:30N 51°14' E 002°56'0 0.0
2017-May-28 11:00N 51°14' E 002°56'0 0.0
2017-May-28 10:30N 51°14' E 002°56'0 0.0
2017-May-28 10:00N 51°14' E 002°56'0 0.0
2017-May-28 09:30N 51°14' E 002°56'0 0.0
2017-May-28 09:00N 51°14' E 002°56'0 0.0
2017-May-28 08:30N 51°14' E 002°56'0 0.0
2017-May-28 08:00N 51°14' E 002°56'0 0.0
2017-May-28 07:30N 51°14' E 002°56'0 0.0
2017-May-28 07:00N 51°14' E 002°56'0 0.0
2017-May-28 06:30N 51°14' E 002°56'0 0.0
2017-May-28 06:00N 51°14' E 002°56'0 0.0
2017-May-28 05:30N 51°14' E 002°56'0 0.0
2017-May-28 04:58N 51°14' E 002°56'0 0.0
2017-May-28 04:30N 51°14' E 002°56'0 0.0
2017-May-28 03:54N 51°14' E 002°56'0 0.0
2017-May-28 03:30N 51°14' E 002°56'0 0.0
2017-May-28 03:00N 51°14' E 002°56'0 0.0
2017-May-28 02:30N 51°14' E 002°56'0 0.0
2017-May-28 02:00N 51°14' E 002°56'0 0.0
2017-May-28 01:28N 51°14' E 002°56'0 0.0
2017-May-28 01:00N 51°14' E 002°56'0 0.0
2017-May-28 00:30N 51°14' E 002°56'0 0.0
2017-May-28 00:00N 51°14' E 002°56'0 0.0
2017-May-27 23:30N 51°14' E 002°56'0 0.0
2017-May-27 23:00N 51°14' E 002°56'0 0.0
2017-May-27 22:30N 51°14' E 002°56'0 0.0
2017-May-27 22:00N 51°14' E 002°56'0 0.0
2017-May-27 21:30N 51°14' E 002°56'0 0.0
2017-May-27 21:00N 51°14' E 002°56'0 0.0
2017-May-27 20:30N 51°14' E 002°56'0 0.0
2017-May-27 20:00N 51°14' E 002°56'0 0.0
2017-May-27 19:30N 51°14' E 002°56'0 0.0
2017-May-27 19:00N 51°14' E 002°56'0 0.0
2017-May-27 18:30N 51°14' E 002°56'0 0.0
2017-May-27 18:00N 51°14' E 002°56'0 0.0
2017-May-27 17:30N 51°14' E 002°56'0 0.0
2017-May-27 17:00N 51°14' E 002°56'0 0.0
2017-May-27 16:30N 51°14' E 002°56'0 0.0
2017-May-27 15:55N 51°14' E 002°56'0 0.0
2017-May-27 15:30N 51°14' E 002°56'0 0.0
2017-May-27 15:00N 51°14' E 002°56'0 0.0
2017-May-27 14:00N 51°14' E 002°56'0 0.0
2017-May-27 13:30N 51°14' E 002°56'0 0.0
2017-May-27 13:00N 51°14' E 002°56'0 0.0
2017-May-27 12:30N 51°14' E 002°56'0 0.0
2017-May-27 12:00N 51°14' E 002°56'0 0.0
2017-May-27 11:30N 51°14' E 002°56'0 0.0
2017-May-27 11:00N 51°14' E 002°56'0 0.0
2017-May-27 10:30N 51°14' E 002°56'0 0.0
2017-May-27 10:00N 51°14' E 002°56'0 0.0
2017-May-27 09:30N 51°14' E 002°56'0 0.0
2017-May-27 09:00N 51°14' E 002°56'0 0.0
2017-May-27 08:28N 51°14' E 002°56'0 0.0
2017-May-27 07:59N 51°14' E 002°56'0 0.0
2017-May-27 07:28N 51°14' E 002°56'0 0.0
2017-May-27 07:00N 51°14' E 002°56'0 0.0
2017-May-27 06:30N 51°14' E 002°56'0 0.0
2017-May-27 06:00N 51°14' E 002°56'0 0.0
2017-May-27 05:27N 51°14' E 002°56'0 0.0
2017-May-27 05:00N 51°14' E 002°56'0 0.0
2017-May-27 04:30N 51°14' E 002°56'0 0.0
2017-May-27 04:00N 51°14' E 002°56'0 0.0
2017-May-27 03:30N 51°14' E 002°56'0 0.0
2017-May-27 02:57N 51°14' E 002°56'0 0.0
2017-May-27 02:30N 51°14' E 002°56'0 0.0
2017-May-27 01:57N 51°14' E 002°56'0 0.0
2017-May-27 01:30N 51°14' E 002°56'0 0.0
2017-May-27 01:00N 51°14' E 002°56'0 0.0
2017-May-27 00:30N 51°14' E 002°56'0 0.0
2017-May-27 00:00N 51°14' E 002°56'0 0.0
2017-May-26 23:30N 51°14' E 002°56'0 0.0
2017-May-26 23:00N 51°14' E 002°56'0 0.0
2017-May-26 22:30N 51°14' E 002°56'0 0.0
2017-May-26 22:00N 51°14' E 002°56'0 0.0
2017-May-26 21:24N 51°14' E 002°56'0 0.0
2017-May-26 21:00N 51°14' E 002°56'0 0.0
2017-May-26 20:30N 51°14' E 002°56'0 0.0
2017-May-26 20:00N 51°14' E 002°56'0 0.0
2017-May-26 19:30N 51°14' E 002°56'0 0.0
2017-May-26 19:00N 51°14' E 002°56'0 0.0
2017-May-26 18:30N 51°14' E 002°56'0 0.0
2017-May-26 17:58N 51°14' E 002°56'0 0.0
2017-May-26 17:30N 51°14' E 002°56'0 0.0
2017-May-26 17:00N 51°14' E 002°56'0 0.0
2017-May-26 16:30N 51°14' E 002°56'0 0.0
2017-May-26 16:00N 51°14' E 002°56'0 0.0
2017-May-26 15:30N 51°14' E 002°56'0 0.0
2017-May-26 15:00N 51°14' E 002°56'0 0.0
2017-May-26 14:00N 51°14' E 002°56'0 0.0
2017-May-26 13:30N 51°14' E 002°56'0 0.0
2017-May-26 13:00N 51°14' E 002°56'0 0.0
2017-May-26 12:30N 51°14' E 002°56'0 0.0
2017-May-26 12:00N 51°14' E 002°56'0 0.0
2017-May-26 11:30N 51°14' E 002°56'0 0.0
2017-May-26 11:00N 51°14' E 002°56'0 0.0
2017-May-26 10:30N 51°14' E 002°56'0 0.0
2017-May-26 10:00N 51°14' E 002°56'0 0.0
2017-May-26 09:30N 51°14' E 002°56'0 0.0
2017-May-26 09:00N 51°14' E 002°56'0 0.0
2017-May-26 08:27N 51°14' E 002°56'0 0.0
2017-May-26 08:00N 51°14' E 002°56'0 0.0
2017-May-26 07:30N 51°14' E 002°56'0 0.0
2017-May-26 07:00N 51°14' E 002°56'0 0.0
2017-May-26 06:30N 51°14' E 002°56'0 0.0
2017-May-26 06:00N 51°14' E 002°56'0 0.0
2017-May-26 05:30N 51°14' E 002°56'0 0.0
2017-May-26 05:00N 51°14' E 002°56'0 0.0
2017-May-26 04:30N 51°14' E 002°56'0 0.0
2017-May-26 04:00N 51°14' E 002°56'0 0.0
2017-May-26 03:30N 51°14' E 002°56'0 0.0
2017-May-26 03:00N 51°14' E 002°56'0 0.0
2017-May-26 02:30N 51°14' E 002°56'0 0.0
2017-May-26 02:00N 51°14' E 002°56'0 0.0
2017-May-26 01:30N 51°14' E 002°56'0 0.0
2017-May-26 01:00N 51°14' E 002°56'0 0.0
2017-May-26 00:30N 51°14' E 002°56'0 0.0
2017-May-26 00:00N 51°14' E 002°56'0 0.0
2017-May-25 23:30N 51°14' E 002°56'0 0.0
2017-May-25 23:00N 51°14' E 002°56'0 0.0
2017-May-25 22:30N 51°14' E 002°56'0 0.0
2017-May-25 22:00N 51°14' E 002°56'0 0.0
2017-May-25 21:30N 51°14' E 002°56'0 0.0
2017-May-25 20:57N 51°14' E 002°56'0 0.0
2017-May-25 20:30N 51°14' E 002°56'0 0.0
2017-May-25 20:00N 51°14' E 002°56'0 0.0
2017-May-25 19:28N 51°14' E 002°56'0 0.0
2017-May-25 19:00N 51°14' E 002°56'0 0.0
2017-May-25 18:30N 51°14' E 002°56'0 0.0
2017-May-25 18:00N 51°14' E 002°56'0 0.0
2017-May-25 17:24N 51°14' E 002°56'0 0.0
2017-May-25 17:00N 51°14' E 002°56'0 0.0
2017-May-25 16:30N 51°14' E 002°56'0 0.0
2017-May-25 16:00N 51°14' E 002°56'0 0.0
2017-May-25 15:30N 51°14' E 002°56'0 0.0
2017-May-25 14:57N 51°14' E 002°56'0 0.0
2017-May-25 14:00N 51°14' E 002°56'0 0.0
2017-May-25 13:30N 51°14' E 002°56'0 0.4
2017-May-25 13:00N 51°14' E 002°56'3 5.5
2017-May-25 12:30N 51°16' E 002°53'3 6.0
2017-May-25 12:00N 51°19' E 002°51'2 3.1
2017-May-25 11:30N 51°20' E 002°52'2 3.9
2017-May-25 11:00N 51°21' E 002°55'2 4.1
2017-May-25 10:31N 51°23' E 002°56'2 4.0
2017-May-25 10:00N 51°24' E 002°59'3 5.5
2017-May-25 09:30N 51°25' E 003°03'3 5.9
2017-May-25 09:00N 51°24' E 003°08'4 8.4
2017-May-25 08:30N 51°25' E 003°14'510.1
2017-May-25 08:01N 51°25' E 003°22'510.5
2017-May-25 07:30N 51°25' E 003°31'510.0
2017-May-25 07:00N 51°26' E 003°39'610.8
2017-May-25 06:29N 51°22' E 003°45'611.9
2017-May-25 06:00N 51°22' E 003°54'611.6
2017-May-25 05:28N 51°26' E 004°01'511.3
2017-May-25 05:00N 51°22' E 004°06'5 8.8
2017-May-25 04:28N 51°22' E 004°13'510.2
2017-May-25 04:00N 51°18' E 004°17'4 8.5
2017-May-25 03:29N 51°14' E 004°21'2 3.7
2017-May-25 02:58N 51°13' E 004°24'0 0.0
2017-May-25 02:28N 51°13' E 004°24'0 0.0
2017-May-25 01:55N 51°13' E 004°24'0 0.0
2017-May-25 01:25N 51°13' E 004°24'0 0.0
2017-May-25 00:55N 51°13' E 004°24'0 0.0
2017-May-25 00:19N 51°13' E 004°24'0 0.0
2017-May-24 23:52N 51°13' E 004°24'0 0.0
2017-May-24 23:28N 51°13' E 004°24'0 0.0
2017-May-24 22:55N 51°13' E 004°24'0 0.0
2017-May-24 22:28N 51°13' E 004°24'0 0.0
2017-May-24 21:58N 51°13' E 004°24'0 0.0
2017-May-24 21:28N 51°13' E 004°24'0 0.0
2017-May-24 20:55N 51°13' E 004°24'0 0.0
2017-May-24 20:28N 51°13' E 004°24'0 0.0
2017-May-24 19:58N 51°13' E 004°24'0 0.0
2017-May-24 19:28N 51°13' E 004°24'0 0.0
2017-May-24 18:58N 51°13' E 004°24'0 0.0
2017-May-24 18:28N 51°13' E 004°24'0 0.0
2017-May-24 17:58N 51°13' E 004°24'0 0.0
2017-May-24 17:22N 51°13' E 004°24'0 0.0
2017-May-24 16:55N 51°13' E 004°24'0 0.0
2017-May-24 16:28N 51°13' E 004°24'0 0.0
2017-May-24 15:55N 51°13' E 004°24'0 0.0
2017-May-24 15:25N 51°13' E 004°24'0 0.0
2017-May-24 14:55N 51°13' E 004°24'0 0.0
2017-May-24 14:28N 51°13' E 004°24'0 0.0
2017-May-24 13:25N 51°13' E 004°24'0 0.0
2017-May-24 12:55N 51°13' E 004°24'0 0.0
2017-May-24 12:22N 51°13' E 004°24'0 0.0
2017-May-24 11:49N 51°13' E 004°24'0 0.0
2017-May-24 11:22N 51°13' E 004°24'0 0.0
2017-May-24 10:07N 51°13' E 004°24'0 0.0
2017-May-24 09:49N 51°13' E 004°24'0 0.0
2017-May-24 09:22N 51°13' E 004°24'0 0.0
2017-May-24 08:31N 51°13' E 004°24'0 0.1
2017-May-24 08:25N 51°13' E 004°24'0 0.0
2017-May-24 07:58N 51°13' E 004°24'0 0.0
2017-May-24 07:28N 51°13' E 004°24'0 0.0
2017-May-24 06:46N 51°13' E 004°24'0 0.0
2017-May-24 06:28N 51°13' E 004°24'0 0.0
2017-May-24 05:49N 51°13' E 004°24'0 0.0
2017-May-24 05:25N 51°13' E 004°24'0 0.0
2017-May-24 04:55N 51°13' E 004°24'0 0.0
2017-May-24 04:25N 51°13' E 004°24'0 0.0
2017-May-24 03:58N 51°13' E 004°24'0 0.0
2017-May-24 03:28N 51°13' E 004°24'0 0.0
2017-May-24 02:58N 51°13' E 004°24'0 0.0
2017-May-24 02:28N 51°13' E 004°24'0 0.0
2017-May-24 01:58N 51°13' E 004°24'0 0.0
2017-May-24 01:28N 51°13' E 004°24'0 0.0
2017-May-24 00:58N 51°13' E 004°24'0 0.0
2017-May-24 00:28N 51°13' E 004°24'0 0.0
2017-May-23 23:58N 51°13' E 004°24'0 0.0
2017-May-23 23:28N 51°13' E 004°24'0 0.0
2017-May-23 22:58N 51°13' E 004°24'0 0.0
2017-May-23 22:25N 51°13' E 004°24'0 0.0
2017-May-23 21:55N 51°13' E 004°24'0 0.0
2017-May-23 21:25N 51°13' E 004°24'0 0.0
2017-May-23 20:55N 51°13' E 004°24'0 0.0
2017-May-23 20:25N 51°13' E 004°24'0 0.0
2017-May-23 19:49N 51°13' E 004°24'0 0.0
2017-May-23 19:19N 51°13' E 004°24'0 0.0
2017-May-23 18:55N 51°13' E 004°24'0 0.0
2017-May-23 18:22N 51°13' E 004°24'0 0.0
2017-May-23 17:55N 51°13' E 004°24'0 0.0
2017-May-23 17:25N 51°13' E 004°24'0 0.0
2017-May-23 16:58N 51°13' E 004°24'0 0.0
2017-May-23 16:25N 51°13' E 004°24'0 0.0
2017-May-23 15:55N 51°13' E 004°24'0 0.0
2017-May-23 15:25N 51°13' E 004°24'0 0.0
2017-May-23 14:58N 51°13' E 004°24'0 0.0
2017-May-23 14:28N 51°13' E 004°24'0 0.0
2017-May-23 13:25N 51°13' E 004°24'0 0.0
2017-May-23 12:58N 51°13' E 004°24'0 0.0
2017-May-23 12:28N 51°13' E 004°24'0 0.0
2017-May-23 11:58N 51°13' E 004°24'0 0.0
2017-May-23 11:28N 51°13' E 004°24'0 0.0
2017-May-23 10:58N 51°13' E 004°24'0 0.0
2017-May-23 10:28N 51°13' E 004°24'0 0.0
2017-May-23 09:58N 51°13' E 004°24'0 0.0
2017-May-23 09:19N 51°13' E 004°24'0 0.0
2017-May-23 08:55N 51°13' E 004°24'0 0.0
2017-May-23 08:22N 51°13' E 004°24'0 0.0
2017-May-23 07:49N 51°13' E 004°24'0 0.0
2017-May-23 07:28N 51°13' E 004°24'0 0.0
2017-May-23 06:52N 51°13' E 004°24'0 0.0
2017-May-23 06:25N 51°13' E 004°24'0 0.0
2017-May-23 05:46N 51°13' E 004°24'0 0.0
2017-May-23 05:28N 51°13' E 004°24'0 0.0
2017-May-23 04:49N 51°13' E 004°24'0 0.0
2017-May-23 04:25N 51°13' E 004°24'0 0.0
2017-May-23 03:49N 51°13' E 004°24'0 0.0
2017-May-23 03:19N 51°13' E 004°24'0 0.0
2017-May-23 02:55N 51°13' E 004°24'0 0.0
2017-May-23 02:28N 51°13' E 004°24'0 0.0
2017-May-23 01:58N 51°13' E 004°24'0 0.0
2017-May-23 01:28N 51°13' E 004°24'0 0.0
2017-May-23 00:58N 51°13' E 004°24'0 0.0
2017-May-23 00:28N 51°13' E 004°24'0 0.0
2017-May-22 23:58N 51°13' E 004°24'0 0.0
2017-May-22 23:31N 51°13' E 004°24'1 1.7
2017-May-22 23:00N 51°14' E 004°24'4 8.3
2017-May-22 22:30N 51°16' E 004°18'5 9.0
2017-May-22 22:00N 51°20' E 004°16'5 9.2
2017-May-22 21:30N 51°24' E 004°11'510.0
2017-May-22 20:59N 51°23' E 004°02'4 7.5
2017-May-22 20:31N 51°25' E 003°58'611.5
2017-May-22 20:00N 51°21' E 003°52'510.9
2017-May-22 19:31N 51°22' E 003°44'610.9
2017-May-22 19:00N 51°25' E 003°36'5 9.5
2017-May-22 18:25N 51°25' E 003°28'4 9.8
2017-May-22 18:00N 51°24' E 003°21'4 9.2
2017-May-22 17:30N 51°24' E 003°14'4 8.5
2017-May-22 17:00N 51°24' E 003°07'4 7.9
2017-May-22 16:29N 51°24' E 003°00'5 8.0
2017-May-22 15:55N 51°22' E 002°54'4 8.3
2017-May-22 15:29N 51°22' E 002°48'4 8.4
2017-May-22 14:58N 51°22' E 002°41'6 6.3
2017-May-22 14:00N 51°22' E 002°31'3 5.4
2017-May-22 13:30N 51°21' E 002°27'2 4.9
2017-May-22 13:00N 51°20' E 002°23'2 3.9
2017-May-22 12:31N 51°20' E 002°20'2 5.0
2017-May-22 12:00N 51°19' E 002°17'4 7.0
2017-May-22 11:30N 51°19' E 002°11'3 6.5
2017-May-22 11:01N 51°21' E 002°06'3 6.4
2017-May-22 10:30N 51°23' E 002°02'3 5.5
2017-May-22 10:00N 51°25' E 001°60'3 5.6
2017-May-22 09:31N 51°27' E 002°02'3 5.9
2017-May-22 09:00N 51°30' E 002°04'3 6.5
2017-May-22 08:30N 51°32' E 002°08'3 6.5
2017-May-22 08:01N 51°35' E 002°11'4 6.9
2017-May-22 07:29N 51°37' E 002°15'5 6.1
2017-May-22 06:43N 51°41' E 002°20'10 7.8
2017-May-22 05:25N 51°48' E 002°31'22 8.1
2017-May-22 02:45N 52°06' E 002°52'2 7.1
2017-May-22 02:24N 52°08' E 002°54'3 6.9
2017-May-22 02:01N 52°10' E 002°56'3 6.7
2017-May-22 01:30N 52°13' E 002°59'26 6.1
2017-May-21 21:13N 52°34' E 003°24'1 6.8
2017-May-21 21:01N 52°35' E 003°26'15 7.7
2017-May-21 19:06N 52°47' E 003°40'6 8.1
2017-May-21 18:18N 52°52' E 003°46'1 1.5
2017-May-21 17:52N 52°53' E 003°46'0 0.9
2017-May-21 17:28N 52°53' E 003°46'1 0.9
2017-May-21 16:52N 52°54' E 003°47'0 0.8
2017-May-21 16:22N 52°54' E 003°47'0 0.2
2017-May-21 15:49N 52°54' E 003°47'1 2.9
2017-May-21 15:31N 52°55' E 003°47'4 6.5
2017-May-21 14:57N 52°59' E 003°49'3 6.7
2017-May-21 14:30N 53°01' E 003°50'86 3.2
2017-May-20 11:44N 54°18' E 004°57'1 2.5
2017-May-20 11:29N 54°17' E 004°58'2 3.3
2017-May-20 10:58N 54°16' E 004°59'3 6.1
2017-May-20 10:28N 54°16' E 005°05'3 5.9
2017-May-20 09:59N 54°16' E 005°09'  

Dump ship's entire track history